createdAt,value
2022-08-17T00:02:05.815Z,22.30
2022-08-17T00:04:50.564Z,22.20
2022-08-17T00:07:17.455Z,22.30
2022-08-17T00:09:44.088Z,22.40
2022-08-17T00:12:42.885Z,22.30
2022-08-17T00:14:57.809Z,22.30
2022-08-17T00:17:24.530Z,22.20
2022-08-17T00:19:51.163Z,22.20
2022-08-17T00:22:31.783Z,22.10
2022-08-17T00:25:07.391Z,22.10
2022-08-17T00:27:34.664Z,22.00
2022-08-17T00:30:01.637Z,22.00
2022-08-17T00:33:14.906Z,22.10
2022-08-17T00:35:18.244Z,22.00
2022-08-17T00:37:45.173Z,22.00
2022-08-17T00:40:14.420Z,22.00
2022-08-17T00:42:42.640Z,22.00
2022-08-17T00:45:11.842Z,21.90
2022-08-17T00:47:38.669Z,21.80
2022-08-17T00:50:09.394Z,21.80
2022-08-17T00:52:43.329Z,21.60
2022-08-17T00:55:11.026Z,21.60
2022-08-17T00:57:44.861Z,21.60
2022-08-17T01:00:28.127Z,21.50
2022-08-17T01:03:00.317Z,21.50
2022-08-17T01:05:31.066Z,21.40
2022-08-17T01:08:00.095Z,21.40
2022-08-17T01:10:57.430Z,21.40
2022-08-17T01:13:36.763Z,21.30
2022-08-17T01:16:28.295Z,21.20
2022-08-17T01:18:59.188Z,21.20
2022-08-17T01:21:37.929Z,21.10
2022-08-17T01:24:04.781Z,21.10
2022-08-17T01:26:33.124Z,21.00
2022-08-17T01:29:02.253Z,21.00
2022-08-17T01:31:33.240Z,21.00
2022-08-17T01:34:04.309Z,20.90
2022-08-17T01:36:31.069Z,20.90
2022-08-17T01:38:57.818Z,20.90
2022-08-17T01:41:24.670Z,20.80
2022-08-17T01:43:56.996Z,20.70
2022-08-17T01:46:29.046Z,20.60
2022-08-17T01:48:57.394Z,20.60
2022-08-17T01:51:32.868Z,20.50
2022-08-17T01:54:05.005Z,20.50
2022-08-17T01:56:33.875Z,20.40
2022-08-17T01:59:00.669Z,20.40
2022-08-17T02:01:30.434Z,20.30
2022-08-17T02:04:00.911Z,20.20
2022-08-17T02:06:31.406Z,20.30
2022-08-17T02:09:08.918Z,20.30
2022-08-17T02:11:43.599Z,20.30
2022-08-17T02:14:12.167Z,20.30
2022-08-17T02:16:41.331Z,20.20
2022-08-17T02:19:11.059Z,20.20
2022-08-17T02:21:40.424Z,20.10
2022-08-17T02:24:11.578Z,20.10
2022-08-17T02:26:38.335Z,19.90
2022-08-17T02:29:05.264Z,20.00
2022-08-17T02:31:32.063Z,20.00
2022-08-17T02:34:04.072Z,20.00
2022-08-17T02:36:33.696Z,19.90
2022-08-17T02:39:03.087Z,19.90
2022-08-17T02:41:30.370Z,19.90
2022-08-17T02:43:57.140Z,20.00
2022-08-17T02:46:23.851Z,20.00
2022-08-17T02:48:50.601Z,19.90
2022-08-17T02:51:17.416Z,19.90
2022-08-17T02:53:44.369Z,19.80
2022-08-17T02:56:11.038Z,19.80
2022-08-17T02:58:37.879Z,19.80
2022-08-17T03:01:07.562Z,19.80
2022-08-17T03:03:35.769Z,19.90
2022-08-17T03:06:03.221Z,19.90
2022-08-17T03:08:30.305Z,19.80
2022-08-17T03:10:57.180Z,19.80
2022-08-17T03:13:24.224Z,19.80
2022-08-17T03:15:51.431Z,19.70
2022-08-17T03:18:25.097Z,19.70
2022-08-17T03:20:58.293Z,19.70
2022-08-17T03:23:26.509Z,19.60
2022-08-17T03:25:55.181Z,19.60
2022-08-17T03:28:23.230Z,19.60
2022-08-17T03:30:51.034Z,19.70
2022-08-17T03:33:18.290Z,19.80
2022-08-17T03:35:45.671Z,19.80
2022-08-17T03:38:15.065Z,19.70
2022-08-17T03:40:56.569Z,19.60
2022-08-17T03:43:25.682Z,19.60
2022-08-17T03:46:28.367Z,19.70
2022-08-17T03:49:16.363Z,19.60
2022-08-17T03:52:01.999Z,19.60
2022-08-17T03:54:47.490Z,19.70
2022-08-17T03:57:14.245Z,19.60
2022-08-17T03:59:41.417Z,19.60
2022-08-17T04:02:12.777Z,19.60
2022-08-17T04:04:40.207Z,19.70
2022-08-17T04:07:07.649Z,19.80
2022-08-17T04:09:34.889Z,19.80
2022-08-17T04:12:04.860Z,19.70
2022-08-17T04:14:36.273Z,19.70
2022-08-17T04:17:18.266Z,19.80
2022-08-17T04:19:46.652Z,19.80
2022-08-17T04:22:33.318Z,19.80
2022-08-17T04:25:29.928Z,19.80
2022-08-17T04:27:57.154Z,19.80
2022-08-17T04:30:24.713Z,19.90
2022-08-17T04:33:00.566Z,19.90
2022-08-17T04:35:44.433Z,19.90
2022-08-17T04:38:14.104Z,20.00
2022-08-17T04:40:59.750Z,19.90
2022-08-17T04:43:28.031Z,19.90
2022-08-17T04:46:01.041Z,19.90
2022-08-17T04:48:36.327Z,20.00
2022-08-17T04:51:27.979Z,20.00
2022-08-17T04:53:59.873Z,20.00
2022-08-17T04:56:28.751Z,19.90
2022-08-17T04:59:00.409Z,20.10
2022-08-17T05:01:30.082Z,20.10
2022-08-17T05:03:59.739Z,20.10
2022-08-17T05:06:29.754Z,20.10
2022-08-17T05:08:58.582Z,20.20
2022-08-17T05:11:26.969Z,20.20
2022-08-17T05:13:55.355Z,20.20
2022-08-17T05:16:23.689Z,20.30
2022-08-17T05:18:50.744Z,20.40
2022-08-17T05:21:18.482Z,20.50
2022-08-17T05:23:49.202Z,20.50
2022-08-17T05:26:26.131Z,20.60
2022-08-17T05:29:00.669Z,20.50
2022-08-17T05:31:30.494Z,20.60
2022-08-17T05:33:57.331Z,20.50
2022-08-17T05:36:41.565Z,20.50
2022-08-17T05:39:16.115Z,20.60
2022-08-17T05:41:45.562Z,20.70
2022-08-17T05:44:12.234Z,20.70
2022-08-17T05:46:43.323Z,20.70
2022-08-17T05:49:11.037Z,20.80
2022-08-17T05:52:05.483Z,20.80
2022-08-17T05:54:50.975Z,20.80
2022-08-17T05:57:39.498Z,20.90
2022-08-17T06:00:20.265Z,20.90
2022-08-17T06:02:53.302Z,21.00
2022-08-17T06:05:48.518Z,21.10
2022-08-17T06:08:18.237Z,21.20
2022-08-17T06:11:01.722Z,21.30
2022-08-17T06:13:53.396Z,21.30
2022-08-17T06:16:34.295Z,21.40
2022-08-17T06:19:27.972Z,21.50
2022-08-17T06:21:55.453Z,21.50
2022-08-17T06:24:43.860Z,21.60
2022-08-17T06:27:36.982Z,21.50
2022-08-17T06:30:14.899Z,21.50
2022-08-17T06:32:45.485Z,21.40
2022-08-17T06:35:15.569Z,21.50
2022-08-17T06:38:10.379Z,21.60
2022-08-17T06:41:26.698Z,21.70
2022-08-17T06:44:09.891Z,22.00
2022-08-17T06:46:48.408Z,22.20
2022-08-17T06:49:21.895Z,22.30
2022-08-17T06:52:46.465Z,22.50
2022-08-17T06:55:18.598Z,22.70
2022-08-17T06:57:52.423Z,23.00
2022-08-17T07:00:26.630Z,23.20
2022-08-17T07:03:11.598Z,23.50
2022-08-17T07:05:42.509Z,23.60
2022-08-17T07:08:11.502Z,23.80
2022-08-17T07:10:44.494Z,23.90
2022-08-17T07:13:25.349Z,24.10
2022-08-17T07:15:58.385Z,24.10
2022-08-17T07:18:26.846Z,24.20
2022-08-17T07:21:00.193Z,24.40
2022-08-17T07:23:41.907Z,24.50
2022-08-17T07:26:09.315Z,24.70
2022-08-17T07:28:36.999Z,24.80
2022-08-17T07:31:04.941Z,24.80
2022-08-17T07:33:35.019Z,24.90
2022-08-17T07:36:02.283Z,25.00
2022-08-17T07:38:31.768Z,25.00
2022-08-17T07:41:02.030Z,25.00
2022-08-17T07:43:40.524Z,25.00
2022-08-17T07:46:41.367Z,25.00
2022-08-17T07:49:11.155Z,25.10
2022-08-17T07:51:52.880Z,25.10
2022-08-17T07:54:22.267Z,25.30
2022-08-17T07:56:56.153Z,25.50
2022-08-17T07:59:29.449Z,25.50
2022-08-17T08:02:07.906Z,25.50
2022-08-17T08:05:02.071Z,25.50
2022-08-17T08:07:36.986Z,25.60
2022-08-17T08:10:35.449Z,25.60
2022-08-17T08:13:14.603Z,25.60
2022-08-17T08:15:54.227Z,25.60
2022-08-17T08:18:53.562Z,25.80
2022-08-17T08:21:43.360Z,25.90
2022-08-17T08:24:40.275Z,25.80
2022-08-17T08:27:27.970Z,26.00
2022-08-17T08:30:04.948Z,26.20
2022-08-17T08:32:44.194Z,26.30
2022-08-17T08:35:37.158Z,26.30
2022-08-17T08:38:32.588Z,26.40
2022-08-17T08:41:44.663Z,26.40
2022-08-17T08:45:00.376Z,26.60
2022-08-17T08:47:32.083Z,26.60
2022-08-17T08:50:42.614Z,26.70
2022-08-17T08:53:30.670Z,26.70
2022-08-17T08:56:11.797Z,26.80
2022-08-17T08:59:02.153Z,26.70
2022-08-17T09:01:56.920Z,26.80
2022-08-17T09:05:10.764Z,26.70
2022-08-17T09:07:38.918Z,26.80
2022-08-17T09:10:27.052Z,26.90
2022-08-17T09:13:09.621Z,26.90
2022-08-17T09:15:47.170Z,27.00
2022-08-17T09:19:02.178Z,27.10
2022-08-17T09:21:22.589Z,27.20
2022-08-17T09:24:00.039Z,27.30
2022-08-17T09:27:09.893Z,27.60
2022-08-17T09:29:42.804Z,27.60
2022-08-17T09:32:19.490Z,27.70
2022-08-17T09:35:03.961Z,27.90
2022-08-17T09:37:53.386Z,27.80
2022-08-17T09:40:55.422Z,27.80
2022-08-17T09:43:50.752Z,27.80
2022-08-17T09:46:47.794Z,27.50
2022-08-17T09:49:29.665Z,27.30
2022-08-17T09:52:02.806Z,27.10
2022-08-17T09:54:39.156Z,27.20
2022-08-17T09:57:29.849Z,27.30
2022-08-17T10:00:16.333Z,27.50
2022-08-17T10:03:01.699Z,27.60
2022-08-17T10:05:31.453Z,27.60
2022-08-17T10:08:16.969Z,27.80
2022-08-17T10:11:10.110Z,27.90
2022-08-17T10:13:56.181Z,28.00
2022-08-17T10:16:40.729Z,28.00
2022-08-17T10:19:29.020Z,27.90
2022-08-17T10:22:35.430Z,27.90
2022-08-17T10:25:26.126Z,27.90
2022-08-17T10:28:11.743Z,27.80
2022-08-17T10:31:10.539Z,27.80
2022-08-17T10:34:18.757Z,27.90
2022-08-17T10:36:48.438Z,27.60
2022-08-17T10:39:27.165Z,27.40
2022-08-17T10:41:59.077Z,27.40
2022-08-17T10:44:47.631Z,27.30
2022-08-17T10:47:18.940Z,27.20
2022-08-17T10:49:52.336Z,27.00
2022-08-17T10:52:29.846Z,26.90
2022-08-17T10:54:58.157Z,26.80
2022-08-17T10:57:42.423Z,26.80
2022-08-17T11:00:35.015Z,26.70
2022-08-17T11:03:02.389Z,26.70
2022-08-17T11:05:43.471Z,26.50
2022-08-17T11:08:43.505Z,26.50
2022-08-17T11:11:38.391Z,26.50
2022-08-17T11:14:52.787Z,26.50
2022-08-17T11:17:41.502Z,26.50
2022-08-17T11:20:46.053Z,26.40
2022-08-17T11:23:44.902Z,26.30
2022-08-17T11:26:26.224Z,25.90
2022-08-17T11:28:59.954Z,25.70
2022-08-17T11:31:38.295Z,25.60
2022-08-17T11:34:15.952Z,25.50
2022-08-17T11:37:15.078Z,25.50
2022-08-17T11:40:06.711Z,25.40
2022-08-17T11:43:05.367Z,25.10
2022-08-17T11:45:50.802Z,24.70
2022-08-17T11:48:54.026Z,24.40
2022-08-17T11:51:42.133Z,24.30
2022-08-17T11:54:34.060Z,24.10
2022-08-17T11:57:27.466Z,23.80
2022-08-17T12:00:09.958Z,23.50
2022-08-17T12:02:47.468Z,23.30
2022-08-17T12:05:17.297Z,23.30
2022-08-17T12:07:51.978Z,23.10
2022-08-17T12:10:29.963Z,23.00
2022-08-17T12:12:57.609Z,22.80
2022-08-17T12:15:31.848Z,22.90
2022-08-17T12:17:58.884Z,22.80
2022-08-17T12:20:32.888Z,22.80
2022-08-17T12:23:41.224Z,22.80
2022-08-17T12:26:25.970Z,22.90
2022-08-17T12:28:59.849Z,23.00
2022-08-17T12:31:43.087Z,23.00
2022-08-17T12:34:17.295Z,23.20
2022-08-17T12:36:44.290Z,23.40
2022-08-17T12:39:14.024Z,23.50
2022-08-17T12:41:47.816Z,23.60
2022-08-17T12:44:32.158Z,23.70
2022-08-17T12:47:21.938Z,23.80
2022-08-17T12:49:52.214Z,23.80
2022-08-17T12:52:32.780Z,23.90
2022-08-17T12:55:07.037Z,23.90
2022-08-17T12:57:39.444Z,24.10
2022-08-17T13:00:23.560Z,24.10
2022-08-17T13:02:54.705Z,24.00
2022-08-17T13:05:54.471Z,24.00
2022-08-17T13:08:29.476Z,24.10
2022-08-17T13:10:57.951Z,24.20
2022-08-17T13:13:28.417Z,24.20
2022-08-17T13:16:11.894Z,24.20
2022-08-17T13:18:44.769Z,24.30
2022-08-17T13:21:27.062Z,24.30
2022-08-17T13:24:00.252Z,24.30
2022-08-17T13:26:35.181Z,24.50
2022-08-17T13:29:06.214Z,24.60
2022-08-17T13:31:49.177Z,24.60
2022-08-17T13:34:27.015Z,24.60
2022-08-17T13:37:29.832Z,24.80
2022-08-17T13:40:19.330Z,25.00
2022-08-17T13:42:54.648Z,24.90
2022-08-17T13:45:35.234Z,24.90
2022-08-17T13:48:13.635Z,25.10
2022-08-17T13:50:42.770Z,25.10
2022-08-17T13:53:31.534Z,25.20
2022-08-17T13:56:38.032Z,25.10
2022-08-17T13:59:14.828Z,25.10
2022-08-17T14:01:53.574Z,25.40
2022-08-17T14:04:27.931Z,25.60
2022-08-17T14:06:54.689Z,25.70
2022-08-17T14:09:31.372Z,25.80
2022-08-17T14:12:02.306Z,25.90
2022-08-17T14:14:30.197Z,26.00
2022-08-17T14:16:57.477Z,26.10
2022-08-17T14:19:24.774Z,26.10
2022-08-17T14:21:56.416Z,26.20
2022-08-17T14:24:35.367Z,26.10
2022-08-17T14:27:04.420Z,26.30
2022-08-17T14:29:33.132Z,26.30
2022-08-17T14:32:09.101Z,26.20
2022-08-17T14:34:35.851Z,26.20
2022-08-17T14:37:02.647Z,26.40
2022-08-17T14:39:32.763Z,26.40
2022-08-17T14:42:00.926Z,26.40
2022-08-17T14:44:27.544Z,26.50
2022-08-17T14:46:54.476Z,26.30
2022-08-17T14:49:21.229Z,26.20
2022-08-17T14:51:48.228Z,26.10
2022-08-17T14:54:32.993Z,26.00
2022-08-17T14:57:26.062Z,26.10
2022-08-17T14:59:54.797Z,26.00
2022-08-17T15:02:29.776Z,26.20
2022-08-17T15:05:03.390Z,26.10
2022-08-17T15:07:30.717Z,26.10
2022-08-17T15:10:02.047Z,26.10
2022-08-17T15:12:33.331Z,26.40
2022-08-17T15:15:04.835Z,26.60
2022-08-17T15:17:44.718Z,26.60
2022-08-17T15:20:21.834Z,26.60
2022-08-17T15:22:49.730Z,26.50
2022-08-17T15:25:17.677Z,26.40
2022-08-17T15:27:44.634Z,26.50
2022-08-17T15:30:11.898Z,26.50
2022-08-17T15:32:46.921Z,26.40
2022-08-17T15:35:27.889Z,26.30
2022-08-17T15:38:11.619Z,26.40
2022-08-17T15:40:42.163Z,26.40
2022-08-17T15:43:12.052Z,26.50
2022-08-17T15:45:39.913Z,26.40
2022-08-17T15:48:07.742Z,26.40
2022-08-17T15:50:35.647Z,26.30
2022-08-17T15:53:04.699Z,26.20
2022-08-17T15:55:32.995Z,26.30
2022-08-17T15:57:59.878Z,26.30
2022-08-17T16:00:28.665Z,26.40
2022-08-17T16:03:44.681Z,26.40
2022-08-17T16:05:50.134Z,26.40
2022-08-17T16:08:21.145Z,26.30
2022-08-17T16:10:49.722Z,26.30
2022-08-17T16:13:18.327Z,26.30
2022-08-17T16:15:56.847Z,26.20
2022-08-17T16:18:28.383Z,26.20
2022-08-17T16:20:55.324Z,26.00
2022-08-17T16:23:22.107Z,26.00
2022-08-17T16:25:52.782Z,26.10
2022-08-17T16:28:21.756Z,26.10
2022-08-17T16:30:49.130Z,26.20
2022-08-17T16:33:16.905Z,26.20
2022-08-17T16:35:43.863Z,26.20
2022-08-17T16:38:12.354Z,26.30
2022-08-17T16:40:40.447Z,26.30
2022-08-17T16:43:10.372Z,26.20
2022-08-17T16:45:40.082Z,26.20
2022-08-17T16:48:08.318Z,26.10
2022-08-17T16:50:35.971Z,26.00
2022-08-17T16:53:10.212Z,26.00
2022-08-17T16:55:38.057Z,25.90
2022-08-17T16:58:06.099Z,25.80
2022-08-17T17:00:33.675Z,25.70
2022-08-17T17:03:28.252Z,25.70
2022-08-17T17:06:18.574Z,25.60
2022-08-17T17:09:01.384Z,25.50
2022-08-17T17:11:46.702Z,25.50
2022-08-17T17:14:20.245Z,25.60
2022-08-17T17:17:03.783Z,25.60
2022-08-17T17:19:34.540Z,25.60
2022-08-17T17:22:20.221Z,25.70
2022-08-17T17:25:01.875Z,25.70
2022-08-17T17:27:50.086Z,25.70
2022-08-17T17:30:37.635Z,25.60
2022-08-17T17:33:10.019Z,25.60
2022-08-17T17:36:15.794Z,25.60
2022-08-17T17:38:53.279Z,25.60
2022-08-17T17:41:32.778Z,25.70
2022-08-17T17:44:07.527Z,25.60
2022-08-17T17:46:39.413Z,25.50
2022-08-17T17:49:06.452Z,25.50
2022-08-17T17:52:06.327Z,25.40
2022-08-17T17:55:05.997Z,25.40
2022-08-17T17:58:10.279Z,25.40
2022-08-17T18:01:09.940Z,25.30
2022-08-17T18:04:20.688Z,25.20
2022-08-17T18:06:50.946Z,25.20
2022-08-17T18:09:26.591Z,24.90
2022-08-17T18:12:23.342Z,24.80
2022-08-17T18:15:15.302Z,24.80
2022-08-17T18:18:06.960Z,24.80
2022-08-17T18:20:43.585Z,24.70
2022-08-17T18:23:27.662Z,24.60
2022-08-17T18:25:55.832Z,24.50
2022-08-17T18:28:29.756Z,24.30
2022-08-17T18:31:23.028Z,24.10
2022-08-17T18:33:53.592Z,24.00
2022-08-17T18:36:39.664Z,23.90
2022-08-17T18:39:19.318Z,23.80
2022-08-17T18:41:52.293Z,23.70
2022-08-17T18:44:35.641Z,23.60
2022-08-17T18:47:15.294Z,23.50
2022-08-17T18:49:47.039Z,23.50
2022-08-17T18:52:24.212Z,23.40
2022-08-17T18:55:05.732Z,23.30
2022-08-17T18:57:40.052Z,23.10
2022-08-17T19:00:35.779Z,23.00
2022-08-17T19:03:05.545Z,23.00
2022-08-17T19:05:41.972Z,22.90
2022-08-17T19:08:30.843Z,22.80
2022-08-17T19:11:20.662Z,22.80
2022-08-17T19:13:57.534Z,22.80
2022-08-17T19:16:34.353Z,22.70
2022-08-17T19:19:17.101Z,22.60
2022-08-17T19:21:53.126Z,22.50
2022-08-17T19:24:20.715Z,22.50
2022-08-17T19:26:58.990Z,22.40
2022-08-17T19:29:44.417Z,22.30
2022-08-17T19:32:12.548Z,22.20
2022-08-17T19:34:42.903Z,22.20
2022-08-17T19:37:37.752Z,22.10
2022-08-17T19:40:35.085Z,22.00
2022-08-17T19:43:08.934Z,21.90
2022-08-17T19:46:07.314Z,21.90
2022-08-17T19:48:55.836Z,21.80
2022-08-17T19:51:40.816Z,21.70
2022-08-17T19:54:44.623Z,21.70
2022-08-17T19:57:27.723Z,21.60
2022-08-17T20:00:00.889Z,21.60
2022-08-17T20:02:50.010Z,21.50
2022-08-17T20:05:25.700Z,21.50
2022-08-17T20:08:14.964Z,21.40
2022-08-17T20:10:48.156Z,21.30
2022-08-17T20:13:45.352Z,21.30
2022-08-17T20:16:12.560Z,21.20
2022-08-17T20:18:47.696Z,21.20
2022-08-17T20:21:21.495Z,21.10
2022-08-17T20:24:04.584Z,21.10
2022-08-17T20:26:55.486Z,21.00
2022-08-17T20:29:40.005Z,21.00
2022-08-17T20:32:28.049Z,20.90
2022-08-17T20:35:33.695Z,20.80
2022-08-17T20:38:02.295Z,20.70
2022-08-17T20:40:34.005Z,20.70
2022-08-17T20:43:32.673Z,20.70
2022-08-17T20:46:26.761Z,20.60
2022-08-17T20:49:14.978Z,20.60
2022-08-17T20:52:09.440Z,20.60
2022-08-17T20:54:48.836Z,20.60
2022-08-17T20:57:34.604Z,20.50
2022-08-17T21:00:16.332Z,20.50
2022-08-17T21:03:04.763Z,20.50
2022-08-17T21:05:57.223Z,20.40
2022-08-17T21:08:34.403Z,20.40
2022-08-17T21:12:02.477Z,20.40
2022-08-17T21:14:32.746Z,20.30
2022-08-17T21:17:36.529Z,20.20
2022-08-17T21:20:32.306Z,20.20
2022-08-17T21:23:20.677Z,20.20
2022-08-17T21:26:19.714Z,20.20
2022-08-17T21:29:00.338Z,20.20
2022-08-17T21:31:36.996Z,20.10
2022-08-17T21:34:16.237Z,20.10
2022-08-17T21:36:48.446Z,20.10
2022-08-17T21:39:21.447Z,20.10
2022-08-17T21:41:55.578Z,19.90
2022-08-17T21:44:35.940Z,20.00
2022-08-17T21:47:35.732Z,19.90
2022-08-17T21:50:24.077Z,19.90
2022-08-17T21:52:55.912Z,19.80
2022-08-17T21:55:28.442Z,19.80
2022-08-17T21:58:14.569Z,19.70
2022-08-17T22:00:44.306Z,19.70
2022-08-17T22:03:23.884Z,19.70
2022-08-17T22:05:51.471Z,19.70
2022-08-17T22:08:21.891Z,19.70
2022-08-17T22:10:51.325Z,19.60
2022-08-17T22:13:18.101Z,19.60
2022-08-17T22:15:49.685Z,19.50
2022-08-17T22:18:28.837Z,19.50
2022-08-17T22:20:57.727Z,19.40
2022-08-17T22:23:48.603Z,19.30
2022-08-17T22:26:17.682Z,19.30
2022-08-17T22:28:58.612Z,19.10
2022-08-17T22:31:49.819Z,19.00
2022-08-17T22:34:17.294Z,18.90
2022-08-17T22:36:44.048Z,18.80
2022-08-17T22:39:10.727Z,18.80
2022-08-17T22:41:43.114Z,18.80
2022-08-17T22:44:15.074Z,18.70
2022-08-17T22:47:11.367Z,18.70
2022-08-17T22:49:53.889Z,18.60
2022-08-17T22:52:59.379Z,18.60
2022-08-17T22:55:45.807Z,18.50
2022-08-17T22:58:36.937Z,18.50
2022-08-17T23:01:32.396Z,18.40
2022-08-17T23:04:02.722Z,18.40
2022-08-17T23:06:33.620Z,18.40
2022-08-17T23:09:03.779Z,18.30
2022-08-17T23:11:48.784Z,18.30
2022-08-17T23:14:19.677Z,18.30
2022-08-17T23:16:48.662Z,18.30
2022-08-17T23:19:18.799Z,18.20
2022-08-17T23:21:46.237Z,18.20
2022-08-17T23:24:22.174Z,18.20
2022-08-17T23:26:49.018Z,18.20
2022-08-17T23:29:16.587Z,18.20
2022-08-17T23:31:43.399Z,18.20
2022-08-17T23:34:13.343Z,18.20
2022-08-17T23:36:40.816Z,18.10
2022-08-17T23:39:08.055Z,18.10
2022-08-17T23:41:38.602Z,18.00
2022-08-17T23:44:06.292Z,18.00
2022-08-17T23:46:34.424Z,18.00
2022-08-17T23:49:01.395Z,18.00
2022-08-17T23:51:31.574Z,17.90
2022-08-17T23:54:08.230Z,17.90
2022-08-17T23:56:45.230Z,17.90
2022-08-17T23:59:13.753Z,17.90
